createdAt,value
2022-09-28T00:02:24.446Z,86.99
2022-09-28T00:05:27.594Z,87.02
2022-09-28T00:08:31.466Z,87.31
2022-09-28T00:11:34.493Z,88.67
2022-09-28T00:14:37.240Z,89.54
2022-09-28T00:17:40.638Z,90.80
2022-09-28T00:20:43.940Z,90.29
2022-09-28T00:24:05.421Z,89.56
2022-09-28T00:27:09.568Z,89.01
2022-09-28T00:30:13.030Z,89.14
2022-09-28T00:33:15.554Z,89.54
2022-09-28T00:36:20.251Z,88.99
2022-09-28T00:39:23.149Z,88.92
2022-09-28T00:42:27.516Z,88.85
2022-09-28T00:45:30.163Z,88.43
2022-09-28T00:48:38.064Z,88.77
2022-09-28T00:51:45.445Z,88.29
2022-09-28T00:54:50.991Z,88.60
2022-09-28T00:57:58.225Z,88.30
2022-09-28T01:01:01.400Z,88.44
2022-09-28T01:04:05.795Z,88.73
2022-09-28T01:07:09.468Z,88.58
2022-09-28T01:10:13.400Z,88.67
2022-09-28T01:13:18.203Z,89.12
2022-09-28T01:17:01.473Z,88.42
2022-09-28T01:20:14.605Z,88.26
2022-09-28T01:23:44.367Z,87.94
2022-09-28T01:27:05.724Z,87.42
2022-09-28T01:30:12.190Z,87.46
2022-09-28T01:33:22.600Z,87.23
2022-09-28T01:36:27.605Z,86.53
2022-09-28T01:39:39.759Z,86.13
2022-09-28T01:42:46.083Z,87.01
2022-09-28T01:46:00.090Z,87.08
2022-09-28T01:49:08.260Z,86.76
2022-09-28T01:52:18.671Z,86.37
2022-09-28T01:55:39.022Z,85.39
2022-09-28T01:58:44.932Z,84.97
2022-09-28T02:01:58.760Z,83.79
2022-09-28T02:05:37.257Z,83.93
2022-09-28T02:08:56.712Z,83.99
2022-09-28T02:12:08.052Z,84.21
2022-09-28T02:15:23.338Z,83.33
2022-09-28T02:18:26.328Z,83.89
2022-09-28T02:21:54.141Z,83.51
2022-09-28T02:25:08.033Z,82.93
2022-09-28T02:28:13.697Z,83.42
2022-09-28T02:31:16.778Z,82.29
2022-09-28T02:34:19.605Z,81.92
2022-09-28T02:37:22.816Z,80.31
2022-09-28T02:40:33.587Z,80.25
2022-09-28T02:43:39.550Z,80.88
2022-09-28T02:46:50.277Z,81.42
2022-09-28T02:50:06.277Z,82.24
2022-09-28T02:53:08.919Z,82.41
2022-09-28T02:56:26.557Z,83.03
2022-09-28T02:59:57.199Z,83.44
2022-09-28T03:03:12.901Z,84.16
2022-09-28T03:06:23.793Z,84.78
2022-09-28T03:09:39.927Z,85.07
2022-09-28T03:12:46.731Z,85.31
2022-09-28T03:15:50.004Z,84.95
2022-09-28T03:18:52.846Z,85.48
2022-09-28T03:21:55.880Z,86.20
2022-09-28T03:24:58.534Z,86.37
2022-09-28T03:28:01.749Z,86.49
2022-09-28T03:31:05.632Z,86.79
2022-09-28T03:34:08.600Z,87.18
2022-09-28T03:37:11.347Z,87.21
2022-09-28T03:40:14.425Z,87.21
2022-09-28T03:43:17.033Z,88.34
2022-09-28T03:46:20.709Z,88.66
2022-09-28T03:49:23.510Z,89.13
2022-09-28T03:52:26.542Z,89.18
2022-09-28T03:55:29.194Z,89.31
2022-09-28T03:58:32.697Z,89.22
2022-09-28T04:01:35.505Z,90.33
2022-09-28T04:04:38.664Z,89.91
2022-09-28T04:07:41.419Z,89.91
2022-09-28T04:10:44.308Z,89.68
2022-09-28T04:13:51.001Z,89.19
2022-09-28T04:16:55.015Z,88.59
2022-09-28T04:19:58.217Z,88.61
2022-09-28T04:23:01.403Z,88.83
2022-09-28T04:26:06.918Z,89.84
2022-09-28T04:29:18.275Z,89.11
2022-09-28T04:32:22.465Z,89.24
2022-09-28T04:35:26.618Z,89.20
2022-09-28T04:38:48.710Z,88.72
2022-09-28T04:41:55.456Z,88.79
2022-09-28T04:44:59.011Z,89.71
2022-09-28T04:48:02.325Z,89.73
2022-09-28T04:51:05.183Z,88.95
2022-09-28T04:54:08.538Z,88.78
2022-09-28T04:57:11.211Z,89.38
2022-09-28T05:00:14.619Z,90.14
2022-09-28T05:03:18.941Z,90.90
2022-09-28T05:06:23.199Z,90.38
2022-09-28T05:09:26.999Z,90.38
2022-09-28T05:12:29.992Z,90.73
2022-09-28T05:15:34.782Z,90.71
2022-09-28T05:18:38.010Z,90.38
2022-09-28T05:21:45.181Z,90.30
2022-09-28T05:24:48.118Z,91.09
2022-09-28T05:27:57.895Z,91.78
2022-09-28T05:31:05.011Z,92.17
2022-09-28T05:34:09.451Z,92.39
2022-09-28T05:37:12.508Z,92.82
2022-09-28T05:40:16.247Z,92.75
2022-09-28T05:43:19.394Z,92.38
2022-09-28T05:46:24.002Z,91.85
2022-09-28T05:49:30.397Z,91.69
2022-09-28T05:52:36.221Z,91.28
2022-09-28T05:55:40.204Z,91.21
2022-09-28T05:58:42.781Z,91.11
2022-09-28T06:01:46.892Z,90.53
2022-09-28T06:04:51.344Z,90.65
2022-09-28T06:07:58.093Z,90.09
2022-09-28T06:11:01.641Z,89.55
2022-09-28T06:14:05.407Z,88.97
2022-09-28T06:17:08.627Z,88.52
2022-09-28T06:20:11.982Z,87.83
2022-09-28T06:23:21.676Z,87.95
2022-09-28T06:26:24.960Z,86.21
2022-09-28T06:29:28.001Z,85.33
2022-09-28T06:32:30.986Z,83.63
2022-09-28T06:35:35.211Z,79.34
2022-09-28T06:38:38.500Z,74.72
2022-09-28T06:41:42.001Z,69.95
2022-09-28T06:44:47.235Z,70.17
2022-09-28T06:48:02.777Z,64.84
2022-09-28T06:51:06.510Z,64.49
2022-09-28T06:54:12.034Z,65.11
2022-09-28T06:57:15.084Z,61.56
2022-09-28T07:00:18.237Z,59.05
2022-09-28T07:03:22.924Z,57.22
2022-09-28T07:06:26.970Z,58.81
2022-09-28T07:09:35.748Z,60.53
2022-09-28T07:12:42.719Z,59.00
2022-09-28T07:15:47.794Z,58.40
2022-09-28T07:18:50.860Z,57.53
2022-09-28T07:22:04.774Z,60.59
2022-09-28T07:25:10.832Z,62.61
2022-09-28T07:28:15.399Z,64.22
2022-09-28T07:31:20.315Z,64.75
2022-09-28T07:34:24.796Z,64.15
2022-09-28T07:37:29.174Z,65.67
2022-09-28T07:40:52.511Z,66.35
2022-09-28T07:43:56.294Z,65.96
2022-09-28T07:46:59.053Z,66.45
2022-09-28T07:50:02.875Z,65.87
2022-09-28T07:53:08.667Z,64.76
2022-09-28T07:56:14.244Z,64.19
2022-09-28T07:59:17.844Z,65.49
2022-09-28T08:02:22.432Z,65.54
2022-09-28T08:05:25.422Z,62.64
2022-09-28T08:08:30.130Z,58.76
2022-09-28T08:11:34.840Z,60.62
2022-09-28T08:14:37.818Z,61.33
2022-09-28T08:17:50.092Z,62.81
2022-09-28T08:21:13.341Z,61.64
2022-09-28T08:24:19.392Z,59.95
2022-09-28T08:27:22.301Z,56.99
2022-09-28T08:30:25.421Z,56.86
2022-09-28T08:33:28.825Z,55.80
2022-09-28T08:36:43.560Z,56.37
2022-09-28T08:39:47.120Z,56.25
2022-09-28T08:42:56.851Z,53.30
2022-09-28T08:46:01.627Z,52.25
2022-09-28T08:49:24.910Z,52.25
2022-09-28T08:52:39.224Z,52.20
2022-09-28T08:55:45.442Z,53.16
2022-09-28T08:58:56.914Z,51.75
2022-09-28T09:02:04.126Z,51.97
2022-09-28T09:05:15.481Z,52.87
2022-09-28T09:08:26.136Z,51.72
2022-09-28T09:12:00.990Z,52.25
2022-09-28T09:15:43.533Z,51.20
2022-09-28T09:18:59.458Z,50.44
2022-09-28T09:22:15.415Z,50.02
2022-09-28T09:25:38.623Z,49.88
2022-09-28T09:29:03.186Z,48.35
2022-09-28T09:32:21.064Z,50.41
2022-09-28T09:35:30.821Z,53.67
2022-09-28T09:38:54.905Z,53.26
2022-09-28T09:42:30.740Z,55.90
2022-09-28T09:45:47.032Z,57.40
2022-09-28T09:48:56.537Z,57.74
2022-09-28T09:52:55.923Z,56.86
2022-09-28T09:56:08.754Z,56.12
2022-09-28T09:59:19.388Z,54.48
2022-09-28T10:02:26.500Z,54.81
2022-09-28T10:05:34.934Z,51.76
2022-09-28T10:08:50.473Z,48.66
2022-09-28T10:11:54.184Z,47.48
2022-09-28T10:14:56.988Z,47.14
2022-09-28T10:18:06.943Z,46.90
2022-09-28T10:21:15.734Z,47.38
2022-09-28T10:24:29.532Z,49.20
2022-09-28T10:27:35.991Z,47.71
2022-09-28T10:30:42.242Z,47.03
2022-09-28T10:33:44.980Z,45.09
2022-09-28T10:36:56.348Z,45.50
2022-09-28T10:39:59.376Z,46.00
2022-09-28T10:43:05.567Z,47.04
2022-09-28T10:46:10.261Z,47.19
2022-09-28T10:49:17.715Z,46.21
2022-09-28T10:52:31.456Z,45.48
2022-09-28T10:55:37.250Z,45.99
2022-09-28T10:58:42.306Z,46.97
2022-09-28T11:01:46.021Z,46.64
2022-09-28T11:04:56.955Z,45.38
2022-09-28T11:08:05.797Z,45.65
2022-09-28T11:11:12.101Z,46.90
2022-09-28T11:14:28.082Z,48.29
2022-09-28T11:17:40.760Z,50.02
2022-09-28T11:20:45.608Z,50.52
2022-09-28T11:23:57.359Z,50.78
2022-09-28T11:27:00.688Z,50.66
2022-09-28T11:30:03.679Z,51.14
2022-09-28T11:33:20.864Z,50.05
2022-09-28T11:37:13.715Z,48.44
2022-09-28T11:40:23.778Z,46.67
2022-09-28T11:43:41.863Z,46.91
2022-09-28T11:47:02.456Z,45.84
2022-09-28T11:50:24.609Z,44.73
2022-09-28T11:53:35.316Z,46.67
2022-09-28T11:56:45.755Z,46.85
2022-09-28T12:00:00.217Z,46.21
2022-09-28T12:03:16.628Z,48.14
2022-09-28T12:06:29.644Z,49.48
2022-09-28T12:09:43.657Z,49.75
2022-09-28T12:12:54.228Z,47.94
2022-09-28T12:19:41.893Z,47.09
2022-09-28T12:23:21.243Z,48.09
2022-09-28T12:26:41.918Z,46.45
2022-09-28T12:29:50.728Z,45.28
2022-09-28T12:32:57.280Z,46.27
2022-09-28T12:36:30.569Z,46.26
2022-09-28T12:39:57.739Z,48.92
2022-09-28T12:43:28.207Z,47.61
2022-09-28T12:46:49.192Z,48.01
2022-09-28T12:53:49.119Z,47.65
2022-09-28T12:57:15.649Z,49.07
2022-09-28T13:00:25.381Z,48.40
2022-09-28T13:03:58.544Z,48.19
2022-09-28T13:07:06.427Z,48.17
2022-09-28T13:10:48.287Z,47.94
2022-09-28T13:14:14.727Z,48.22
2022-09-28T13:17:54.795Z,48.72
2022-09-28T13:21:06.987Z,47.72
2022-09-28T13:24:31.738Z,48.72
2022-09-28T13:27:40.758Z,49.94
2022-09-28T13:30:45.379Z,52.42
2022-09-28T13:33:50.680Z,53.24
2022-09-28T13:37:24.547Z,54.48
2022-09-28T13:41:06.040Z,56.14
2022-09-28T13:44:16.795Z,56.88
2022-09-28T13:47:21.038Z,57.18
2022-09-28T13:50:45.522Z,57.66
2022-09-28T13:54:47.658Z,57.52
2022-09-28T13:58:00.670Z,58.26
2022-09-28T14:01:11.758Z,58.19
2022-09-28T14:04:20.545Z,58.46
2022-09-28T14:10:54.066Z,57.92
2022-09-28T14:14:08.582Z,57.52
2022-09-28T14:17:29.448Z,56.90
2022-09-28T14:20:35.504Z,57.13
2022-09-28T14:23:59.024Z,56.83
2022-09-28T14:27:20.953Z,57.34
2022-09-28T14:30:28.187Z,57.95
2022-09-28T14:33:34.614Z,58.16
2022-09-28T14:37:02.075Z,58.55
2022-09-28T14:40:36.440Z,58.92
2022-09-28T14:43:45.303Z,59.45
2022-09-28T14:46:49.519Z,60.12
2022-09-28T14:50:01.058Z,60.63
2022-09-28T14:53:13.679Z,61.15
2022-09-28T14:56:18.365Z,61.50
2022-09-28T14:59:22.850Z,61.35
2022-09-28T15:02:36.278Z,61.44
2022-09-28T15:05:44.232Z,61.58
2022-09-28T15:08:47.343Z,61.94
2022-09-28T15:11:52.415Z,61.89
2022-09-28T15:14:59.351Z,62.12
2022-09-28T15:18:31.902Z,62.18
2022-09-28T15:21:37.543Z,63.03
2022-09-28T15:24:40.837Z,62.95
2022-09-28T15:27:43.887Z,63.18
2022-09-28T15:30:46.611Z,63.39
2022-09-28T15:34:08.383Z,63.86
2022-09-28T15:37:11.849Z,64.00
2022-09-28T15:40:19.125Z,63.71
2022-09-28T15:43:33.178Z,63.74
2022-09-28T15:46:40.788Z,63.88
2022-09-28T15:50:01.195Z,63.89
2022-09-28T15:53:08.744Z,63.93
2022-09-28T15:56:11.977Z,63.85
2022-09-28T15:59:14.871Z,63.94
2022-09-28T16:02:25.421Z,63.70
2022-09-28T16:05:37.362Z,64.18
2022-09-28T16:08:49.132Z,64.31
2022-09-28T16:11:52.083Z,64.34
2022-09-28T16:14:56.467Z,64.39
2022-09-28T16:18:03.133Z,64.60
2022-09-28T16:21:24.414Z,64.51
2022-09-28T16:24:36.004Z,64.58
2022-09-28T16:27:43.595Z,64.60
2022-09-28T16:31:04.900Z,64.77
2022-09-28T16:34:11.378Z,64.99
2022-09-28T16:37:32.026Z,64.84
2022-09-28T16:40:35.484Z,64.74
2022-09-28T16:43:38.607Z,64.69
2022-09-28T16:46:44.486Z,64.61
2022-09-28T16:49:48.619Z,64.73
2022-09-28T16:53:30.278Z,64.60
2022-09-28T16:56:36.576Z,64.44
2022-09-28T16:59:39.175Z,64.62
2022-09-28T17:02:46.631Z,64.72
2022-09-28T17:05:51.112Z,65.00
2022-09-28T17:08:58.622Z,65.19
2022-09-28T17:12:02.257Z,65.37
2022-09-28T17:15:05.535Z,65.40
2022-09-28T17:18:08.154Z,65.53
2022-09-28T17:21:16.619Z,65.71
2022-09-28T17:24:20.567Z,66.03
2022-09-28T17:27:23.882Z,66.03
2022-09-28T17:30:26.529Z,66.74
2022-09-28T17:33:29.969Z,67.18
2022-09-28T17:36:34.002Z,67.30
2022-09-28T17:39:36.958Z,67.53
2022-09-28T17:42:40.716Z,67.39
2022-09-28T17:45:46.322Z,67.22
2022-09-28T17:48:49.250Z,67.67
2022-09-28T17:51:53.087Z,67.61
2022-09-28T17:54:55.752Z,68.04
2022-09-28T17:58:02.415Z,69.63
2022-09-28T18:01:05.456Z,70.50
2022-09-28T18:04:23.092Z,72.19
2022-09-28T18:07:34.722Z,72.94
2022-09-28T18:10:37.907Z,73.36
2022-09-28T18:13:40.975Z,73.67
2022-09-28T18:16:45.663Z,73.25
2022-09-28T18:19:48.559Z,73.54
2022-09-28T18:22:53.992Z,74.08
2022-09-28T18:25:57.128Z,74.53
2022-09-28T18:29:00.069Z,74.76
2022-09-28T18:32:03.921Z,75.56
2022-09-28T18:35:09.033Z,75.69
2022-09-28T18:38:18.840Z,76.20
2022-09-28T18:41:21.921Z,76.61
2022-09-28T18:44:24.944Z,76.97
2022-09-28T18:47:28.095Z,77.45
2022-09-28T18:50:30.755Z,78.18
2022-09-28T18:53:34.938Z,78.51
2022-09-28T18:56:39.497Z,78.61
2022-09-28T18:59:43.527Z,79.00
2022-09-28T19:02:46.320Z,79.31
2022-09-28T19:05:50.440Z,79.39
2022-09-28T19:08:56.923Z,79.10
2022-09-28T19:12:00.156Z,79.06
2022-09-28T19:15:04.807Z,78.87
2022-09-28T19:18:07.845Z,79.05
2022-09-28T19:21:13.212Z,79.39
2022-09-28T19:24:18.484Z,79.83
2022-09-28T19:27:21.105Z,80.43
2022-09-28T19:30:25.098Z,81.14
2022-09-28T19:33:27.994Z,80.74
2022-09-28T19:36:30.954Z,81.08
2022-09-28T19:39:33.561Z,81.74
2022-09-28T19:42:39.940Z,81.69
2022-09-28T19:45:42.993Z,82.24
2022-09-28T19:48:49.342Z,82.52
2022-09-28T19:52:14.971Z,82.42
2022-09-28T19:55:19.094Z,82.88
2022-09-28T19:58:23.234Z,83.11
2022-09-28T20:01:26.652Z,83.44
2022-09-28T20:04:30.152Z,83.57
2022-09-28T20:07:34.886Z,83.43
2022-09-28T20:10:38.561Z,83.22
2022-09-28T20:13:41.233Z,84.26
2022-09-28T20:16:44.707Z,85.64
2022-09-28T20:19:48.163Z,87.55
2022-09-28T20:22:51.992Z,88.14
2022-09-28T20:25:54.860Z,89.05
2022-09-28T20:28:58.436Z,87.94
2022-09-28T20:32:01.949Z,88.76
2022-09-28T20:35:05.982Z,89.37
2022-09-28T20:38:09.283Z,88.81
2022-09-28T20:41:13.694Z,88.37
2022-09-28T20:44:16.767Z,87.98
2022-09-28T20:47:19.907Z,88.01
2022-09-28T20:50:23.675Z,87.69
2022-09-28T20:53:26.932Z,87.71
2022-09-28T20:56:34.660Z,87.44
2022-09-28T20:59:37.606Z,87.07
2022-09-28T21:02:40.302Z,86.97
2022-09-28T21:05:43.417Z,86.83
2022-09-28T21:08:46.843Z,87.13
2022-09-28T21:11:49.781Z,87.38
2022-09-28T21:14:53.876Z,87.09
2022-09-28T21:17:56.894Z,86.96
2022-09-28T21:20:59.548Z,86.68
2022-09-28T21:24:02.533Z,86.49
2022-09-28T21:27:05.210Z,86.42
2022-09-28T21:30:09.417Z,86.31
2022-09-28T21:33:11.953Z,86.14
2022-09-28T21:36:14.905Z,86.07
2022-09-28T21:39:18.388Z,85.77
2022-09-28T21:42:21.353Z,85.86
2022-09-28T21:45:25.527Z,85.79
2022-09-28T21:48:29.485Z,85.61
2022-09-28T21:51:32.657Z,85.32
2022-09-28T21:54:37.499Z,85.07
2022-09-28T21:57:40.120Z,84.99
2022-09-28T22:00:43.043Z,84.97
2022-09-28T22:03:49.084Z,84.91
2022-09-28T22:06:51.730Z,85.85
2022-09-28T22:09:55.619Z,86.07
2022-09-28T22:12:58.263Z,85.58
2022-09-28T22:16:01.554Z,85.74
2022-09-28T22:19:04.234Z,86.40
2022-09-28T22:22:07.656Z,86.10
2022-09-28T22:25:10.439Z,86.22
2022-09-28T22:28:13.409Z,86.42
2022-09-28T22:31:17.606Z,85.95
2022-09-28T22:34:20.741Z,86.32
2022-09-28T22:37:24.122Z,85.82
2022-09-28T22:40:27.576Z,85.54
2022-09-28T22:43:30.575Z,85.68
2022-09-28T22:46:33.672Z,85.76
2022-09-28T22:49:36.554Z,85.00
2022-09-28T22:52:39.485Z,84.98
2022-09-28T22:55:42.352Z,84.67
2022-09-28T22:58:46.542Z,84.41
2022-09-28T23:01:51.719Z,84.95
2022-09-28T23:04:54.653Z,85.26
2022-09-28T23:07:58.385Z,85.69
2022-09-28T23:11:01.857Z,85.56
2022-09-28T23:14:05.524Z,85.49
2022-09-28T23:17:08.542Z,85.15
2022-09-28T23:20:11.138Z,85.54
2022-09-28T23:23:14.041Z,85.69
2022-09-28T23:26:20.197Z,85.11
2022-09-28T23:29:23.039Z,84.50
2022-09-28T23:32:29.777Z,85.33
2022-09-28T23:35:34.719Z,85.06
2022-09-28T23:38:37.428Z,84.82
2022-09-28T23:41:40.487Z,84.94
2022-09-28T23:44:43.114Z,84.92
2022-09-28T23:47:46.079Z,84.39
2022-09-28T23:50:48.949Z,84.62
2022-09-28T23:53:51.888Z,84.90
2022-09-28T23:56:54.516Z,84.95
2022-09-28T23:59:57.488Z,85.18
